METAR Data
IDs: Format: Raw Decoded Include TAF

Data at: 1344 UTC 14 Dec 2019

PAZK 141256Z AUTO 05006KT 9SM -SN OVC006 M10/M12 A2961 RMK AO2 SNB1159 SLP106 P0000 T11001117 FZRANO
PAZK 141156Z AUTO 07006KT 9SM OVC008 M11/M12 A2961 RMK AO2 SNB06E54 SLP104 P0000 60000 T11061122 11089 21156 51013 FZRANO
PAZK 141056Z AUTO 36008KT 10SM OVC008 M09/M10 A2959 RMK AO2 SNE00 CIG 006V009 SLP095 P0000 T10891100 FZRANO
PAZK 141011Z AUTO 36007KT 10SM OVC008 M10/M11 A2959 RMK AO2 SNE00 P0000 FZRANO
PAZK 140956Z AUTO 01009KT 9SM -SN OVC010 M11/M12 A2959 RMK AO2 SNB44 SLP097 P0000 T11061117 FZRANO
PAZK 140856Z AUTO 01009KT 9SM FEW100 M10/M11 A2956 RMK AO2 SNE52 SLP086 P0000 60000 T11001111 58001 FZRANO
PAZK 140843Z AUTO 36010KT 10SM -SN FEW009 M11/M12 A2956 RMK AO2 P0000 FZRANO
PAZK 140756Z AUTO 36008KT 8SM -SN FEW019 BKN030 BKN040 M10/M11 A2957 RMK AO2 SNB50 SLP090 P0000 T11001111 411001172 FZRANO
PAZK 140656Z AUTO 01007KT 10SM SCT070 BKN080 M11/M12 A2957 RMK AO2 SNE31 SLP089 P0000 T11061117 FZRANO
PAZK 140621Z AUTO 02007KT 4SM -SN BR FEW001 BKN080 M14/M16 A2957 RMK AO2 P0000 FZRANO
PAZK 140603Z AUTO VRB05KT 3SM -SN BR SCT001 M16/M17 A2958 RMK AO2 P0000 FZRANO
PAZK 140559Z AUTO 36007KT 1 1/2SM -SN BR SCT001 M16/M17 A2957 RMK AO2 P0000 FZRANO
PAZK 140556Z AUTO 01004KT 1SM -SN BR BKN001 M16/M17 A2957 RMK AO2 SNB07E17B42 SLP094 P0000 60000 T11561172 11133 21172 58001 FZRANO
PAZK 140544Z AUTO 05004KT 3/4SM -SN BR BKN001 M16/M17 A2957 RMK AO2 SNB07E17B42 P0000 FZRANO
PAZK 140541Z AUTO 06005KT 1 1/2SM BR BKN001 M16/M17 A2958 RMK AO2 SNB07E17 P0000 FZRANO
PAZK 140536Z AUTO 06005KT 3SM BR SCT001 M15/M17 A2958 RMK AO2 SNB07E17 P0000 FZRANO
PAZK 140533Z AUTO 04004KT 1 1/2SM BR SCT001 M15/M17 A2957 RMK AO2 SNB07E17 P0000 FZRANO
PAZK 140523Z AUTO 06005KT 3/4SM BR VV001 M15/M17 A2957 RMK AO2 SNB07E17 P0000 FZRANO
PAZK 140520Z AUTO 07006KT 1 1/4SM BR FEW001 M14/M16 A2957 RMK AO2 SNB07E17 P0000 FZRANO
PAZK 140456Z AUTO 02005KT 9SM SCT001 M15/M17 A2957 RMK AO2 SNE52 SLP095 P0000 T11501167 FZRANO
PAZK 140450Z AUTO 01005KT 9SM -SN SCT001 M16/M17 A2957 RMK AO2 P0000 FZRANO
PAZK 140446Z AUTO 02005KT 2SM -SN BR BKN001 M16/M18 A2957 RMK AO2 P0000 FZRANO
PAZK 140443Z AUTO 02004KT 1SM -SN BR BKN001 M16/M18 A2957 RMK AO2 P0000 FZRANO
PAZK 140435Z AUTO 00000KT 1/2SM -SN FZFG BKN001 M16/M17 A2957 RMK AO2 P0000 FZRANO
PAZK 140431Z AUTO 09003KT 1SM -SN BR BKN001 M16/M17 A2958 RMK AO2 P0000 FZRANO
PAZK 140425Z AUTO 06003KT 2 1/2SM -SN BR BKN001 M16/M17 A2957 RMK AO2 VIS 1 3/4V5 P0000 FZRANO
PAZK 140410Z AUTO 05005KT 3SM -SN BR FEW001 M17/M19 A2957 RMK AO2 P0000 FZRANO
PAZK 140407Z AUTO 06004KT 1 1/2SM -SN BR SCT001 M17/M18 A2957 RMK AO2 P0000 FZRANO
PAZK 140404Z AUTO 07003KT 3/4SM -SN BR VV001 M17/M18 A2957 RMK AO2 P0000 FZRANO
PAZK 140356Z AUTO 00000KT 1/2SM -SN FZFG VV001 M17/M18 A2957 RMK AO2 SNB01E16B36 SLP097 P0000 T11671183 FZRANO
PAZK 140351Z AUTO 00000KT 1/2SM SN VV001 M16/M19 A2957 RMK AO2 SNB01E16B36 P0000 FZRANO
PAZK 140344Z AUTO 00000KT 3/4SM -SN BR VV001 M15/M17 A2957 RMK AO2 SNB01E16B36 P0000 FZRANO
PAZK 140341Z AUTO 00000KT 1 1/4SM -SN BR FEW001 M15/M17 A2957 RMK AO2 SNB01E16B36 P0000 FZRANO
PAZK 140256Z AUTO 01005KT 10SM CLR M17/M19 A2957 RMK AO2 SNB12E50 SLP098 P0000 60000 T11671189 53000 FZRANO
PAZK 140218Z AUTO 01007KT 9SM -SN SCT002 M17/M18 A2956 RMK AO2 SNB12 P0000 FZRANO
PAZK 140209Z AUTO 00000KT 7SM BKN002 M16/M18 A2956 RMK AO2 FZRANO
PAZK 140201Z AUTO VRB04KT 2SM BR BKN002 M17/M18 A2957 RMK AO2 FZRANO
PAZK 140156Z AUTO 34004KT 1SM BR OVC002 M17/M18 A2957 RMK AO2 SNE18B44E54 SLP097 P0000 T11671183 FZRANO
PAZK 140154Z AUTO VRB03KT 3/4SM BR OVC002 M16/M18 A2957 RMK AO2 SNE18B44E54 P0000 FZRANO
PAZK 140138Z AUTO 00000KT 1SM BR OVC002 M16/M18 A2957 RMK AO2 SNE18 P0000 FZRANO
PAZK 140125Z AUTO 00000KT 1/2SM FZFG OVC002 M15/M17 A2957 RMK AO2 SNE18 P0000 FZRANO
PAZK 140056Z AUTO 00000KT 1/4SM -SN FZFG OVC002 M14/M16 A2957 RMK AO2 SLP094 P0000 T11441161 FZRANO
PAZK 132356Z AUTO 04004KT 1/4SM -SN FZFG OVC002 M13/M15 A2957 RMK AO2 SNB21 SLP091 P0000 60000 T11331150 11106 21133 51010 FZRANO
PAZK 132351Z AUTO 03005KT 1/4SM -SN FZFG OVC002 M13/M14 A2956 RMK AO2 SNB21 P0000 FZRANO
PAZK 132323Z AUTO 06006KT 1/2SM -SN FZFG OVC002 M13/M14 A2955 RMK AO2 SNB21 P0000 FZRANO
PAZK 132316Z AUTO 03006KT 3/4SM BR OVC002 M13/M14 A2954 RMK AO2 FZRANO
PAZK 132309Z AUTO 03006KT 1/2SM FZFG OVC002 M12/M14 A2954 RMK AO2 FZRANO
PAZK 132256Z AUTO 02007KT 1/4SM FZFG OVC002 M12/M14 A2955 RMK AO2 SNE52 SLP083 P0000 T11221139 FZRANO
PAZK 132244Z AUTO 03007KT 1/4SM -SN FZFG OVC002 M12/M13 A2955 RMK AO2 P0000 FZRANO
PAZK 132234Z AUTO 05008KT 1/2SM FZFG OVC002 M12/M13 A2954 RMK AO2 SNE22 P0000 FZRANO
PAZK 132227Z AUTO 35007KT 1/4SM FZFG OVC002 M12/M13 A2954 RMK AO2 SNE22 P0000 FZRANO
PAZK 132205Z AUTO 05008KT 1/2SM -SN FZFG OVC002 M12/M13 A2953 RMK AO2 P0000 FZRANO
PAZK 132156Z AUTO 05012KT 1/4SM -SN FZFG OVC002 M12/M13 A2953 RMK AO2 SNB04 SLP077 P0000 T11171133 FZRANO
PAZK 132056Z AUTO 03008KT 1/4SM FZFG OVC002 M11/M13 A2952 RMK AO2 SNE48 SLP071 P0000 60000 T11111128 53020 FZRANO
PAZK 131956Z AUTO 04008KT 1/4SM -SN FZFG OVC002 M11/M12 A2950 RMK AO2 SNE21B37 SLP064 P0000 T11111122 FZRANO
PAZK 131856Z AUTO 03008KT 1/4SM -SN FZFG OVC002 M11/M12 A2947 RMK AO2 SLP057 P0000 T11111122 FZRANO
PAZK 131847Z AUTO 03009KT 1/4SM FZFG OVC002 M11/M12 A2947 RMK AO2 SNE42 P0000 FZRANO
PAZK 131809Z AUTO 05007KT 1/2SM -SN FZFG OVC002 M11/M12 A2946 RMK AO2 P0000 FZRANO
PAZK 131756Z AUTO VRB03KT 3/4SM -SN BR OVC002 M11/M12 A2946 RMK AO2 SLP049 P0000 60000 T11061117 11100 21117 51016 FZRANO
PAZK 131753Z AUTO 06005KT 3/4SM -SN BR OVC002 M11/M12 A2946 RMK AO2 P0000 FZRANO
PAZK 131737Z AUTO 04005KT 1/2SM FZFG OVC002 M11/M12 A2944 RMK AO2 SNE37 P0000 FZRANO
PAZK 131730Z AUTO 05005KT 3/4SM -SN BR OVC002 M11/M12 A2945 RMK AO2 P0000 FZRANO
PAZK 131721Z AUTO VRB05KT 1SM -SN BR OVC002 M11/M12 A2944 RMK AO2 P0000 FZRANO
PAZK 131556Z AUTO 05006KT 1/2SM FZFG OVC002 M11/M12 A2940 RMK AO2 SLP029 T11061117 FZRANO
PAZK 131540Z AUTO VRB05KT 1/2SM FZFG OVC002 M11/M12 A2939 RMK AO2 FZRANO
PAZK 131526Z AUTO 04005KT 3/4SM BR OVC004 M11/M12 A2940 RMK AO2 FZRANO
PAZK 131519Z AUTO 04005KT 1 3/4SM BR OVC004 M11/M12 A2939 RMK AO2 FZRANO
PAZK 131509Z AUTO VRB05KT 3SM BR OVC004 M11/M12 A2939 RMK AO2 FZRANO
PAZK 131505Z AUTO VRB06KT 1 1/4SM BR OVC004 M11/M12 A2939 RMK AO2 FZRANO
PAZK 131456Z AUTO 04005KT 3/4SM BR OVC004 M11/M12 A2938 RMK AO2 SLP019 T11111122 53013 FZRANO
PAZK 131448Z AUTO 02005KT 3/4SM BR OVC004 M11/M13 A2938 RMK AO2 FZRANO
PAZK 131438Z AUTO 02006KT 1 3/4SM BR OVC004 M12/M13 A2937 RMK AO2 FZRANO
PAZK 131356Z AUTO 07005KT 10SM OVC004 M11/M12 A2936 RMK AO2 SLP010 T11111122 FZRANO
PAZK 131308Z AUTO 04005KT 10SM BKN004 OVC009 M11/M13 A2935 RMK AO2 CIG 003V007 FZRANO
PAZK 131256Z AUTO 05006KT 10SM OVC007 M11/M13 A2935 RMK AO2 CIG 003V011 SLP007 T11111128 FZRANO
PAZK 131251Z AUTO 03005KT 10SM OVC009 M11/M13 A2934 RMK AO2 CIG 008V012 FZRANO
PAZK 131227Z AUTO 04004KT 10SM SCT002 OVC011 M12/M13 A2933 RMK AO2 FZRANO
PAZK 131202Z AUTO 07006KT 3SM BR BKN002 OVC011 M11/M12 A2931 RMK AO2 FZRANO
PAZK 131156Z AUTO 05006KT 1 1/2SM BR BKN002 OVC009 M11/M12 A2930 RMK AO2 SLP992 60000 T11111122 11106 21122 50009 FZRANO
PAZK 131150Z AUTO 06005KT 1 3/4SM BR BKN002 OVC009 M11/M12 A2931 RMK AO2 VIS 1V5 FZRANO
PAZK 131146Z AUTO 05005KT 3SM BR BKN002 OVC009 M11/M12 A2931 RMK AO2 FZRANO
PAZK 131135Z AUTO 00000KT 10SM SCT002 OVC009 M11/M13 A2931 RMK AO2 FZRANO
PAZK 131105Z AUTO 00000KT 3SM BR OVC004 M11/M13 A2931 RMK AO2 FZRANO
PAZK 131056Z AUTO 00000KT 1 3/4SM BR OVC004 M11/M13 A2931 RMK AO2 VIS 1 1/4V4 SLP995 T11111128 FZRANO
PAZK 131054Z AUTO 06003KT 1 3/4SM BR OVC004 M11/M13 A2931 RMK AO2 VIS 1 1/4V4 FZRANO
PAZK 130956Z AUTO VRB05KT 5SM BR OVC004 M11/M12 A2928 RMK AO2 CIG 003V007 SLP985 T11061117 FZRANO
PAZK 130945Z AUTO 01005KT 2SM BR OVC004 M11/M12 A2928 RMK AO2 FZRANO
PAZK 130929Z AUTO VRB04KT 1 3/4SM BR OVC004 M11/M12 A2927 RMK AO2 FZRANO
PAZK 130904Z AUTO 02005KT 1SM BR OVC004 M11/M12 A2928 RMK AO2 FZRANO
PAZK 130856Z AUTO 02006KT 1/2SM FZFG OVC004 M11/M12 A2927 RMK AO2 SLP984 60000 T11061122 51011 FZRANO
PAZK 130839Z AUTO 02004KT 1/2SM FZFG OVC004 M11/M12 A2927 RMK AO2 FZRANO
PAZK 130826Z AUTO 04005KT 3/4SM BR OVC004 M11/M12 A2926 RMK AO2 CIG 002V005 FZRANO
PAZK 130756Z AUTO 03004KT 1/2SM FZFG OVC002 M11/M12 A2926 RMK AO2 SLP980 T11111122 410721122 FZRANO
PAZK 130754Z AUTO 03004KT 1/2SM FZFG OVC002 M11/M12 A2926 RMK AO2 410721122 FZRANO
PAZK 130747Z AUTO 02005KT 1/4SM FZFG OVC002 M12/M13 A2926 RMK AO2 FZRANO
PAZK 130714Z AUTO 03005KT 1/2SM FZFG OVC002 M12/M13 A2925 RMK AO2 FZRANO
PAZK 130701Z AUTO 04005KT 3/4SM BR OVC002 M12/M13 A2924 RMK AO2 FZRANO
PAZK 130656Z AUTO 05006KT 1 3/4SM BR OVC002 M12/M14 A2924 RMK AO2 SNB40E51 SLP973 P0000 T11221139 FZRANO
PAZK 130639Z AUTO 06006KT 3SM BR OVC002 M12/M14 A2923 RMK AO2 FZRANO
PAZK 130623Z AUTO 01006KT 1 3/4SM BR BKN002 M12/M13 A2922 RMK AO2 FZRANO
PAZK 130619Z AUTO 02006KT 4SM BR BKN002 M12/M13 A2922 RMK AO2 FZRANO
PAZK 130556Z AUTO 01006KT 10SM SCT002 M11/M12 A2922 RMK AO2 SLP964 T11111122 11083 21111 52002 FZRANO
PAZK 130551Z AUTO 01006KT 10SM SCT002 M11/M12 A2922 RMK AO2 FZRANO
PAZK 130544Z AUTO 01006KT 10SM BKN002 M11/M12 A2922 RMK AO2 FZRANO
PAZK 130527Z AUTO 02006KT 10SM FEW002 SCT100 M11/M12 A2922 RMK AO2 FZRANO
PAZK 130456Z AUTO 01006KT 10SM BKN095 M10/M11 A2921 RMK AO2 SLP960 T11001111 FZRANO
PAZK 130356Z AUTO 02007KT 10SM BKN080 OVC095 M09/M11 A2921 RMK AO2 SLP957 T10941111 FZRANO
PAZK 130256Z AUTO 01003KT 10SM FEW075 OVC095 M08/M10 A2921 RMK AO2 SLP956 T10831100 56007 FZRANO
PAZK 130156Z AUTO 01004KT 10SM OVC090 M08/M09 A2921 RMK AO2 SLP956 T10831094 FZRANO